Gunnison Bend Reservoir




Date Hourly Average Reservoir Capacity (AF) Canal Flow (cfs) Battery Voltage (V) Reservoir Height (ft) Gate Height 1 (ft) Gate Height 2 (ft)
01/01/2019 1,654 0.00 12.78 7.79 -0.08 0.00
01/02/2019 1,654 0.00 13.28 7.79 -0.08 0.00
01/03/2019 1,654 0.00 13.36 7.79 -0.08 0.00
01/04/2019 1,654 0.00 13.37 7.79 -0.08 0.00
01/05/2019 1,654 0.00 13.34 7.79 -0.08 0.00
01/06/2019 1,654 0.00 13.17 7.79 -0.08 0.00
01/07/2019 1,654 0.00 13.11 7.79 -0.08 -0.01
01/08/2019 1,666 0.00 13.29 7.82 -0.08 0.00
01/09/2019 1,722 0.00 13.24 7.95 -0.08 0.00
01/10/2019 1,737 0.00 13.20 7.99 -0.08 -0.01
01/11/2019 1,748 0.00 13.19 8.01 -0.08 0.00
01/12/2019 1,753 0.00 12.99 8.02 -0.08 -0.01
01/13/2019 1,757 0.00 12.63 8.03 -0.08 -0.01
01/14/2019 1,757 0.00 12.67 8.03 -0.08 0.00
01/15/2019 1,762 0.00 12.65 8.04 -0.08 0.00
01/16/2019 1,772 0.00 12.51 8.06 -0.08 -0.01
01/17/2019 1,791 0.00 12.60 8.10 -0.08 -0.01
01/18/2019 1,811 0.00 12.51 8.14 -0.08 0.00
01/19/2019 1,825 0.00 12.76 8.17 -0.08 0.00
01/20/2019 1,830 0.00 13.01 8.18 -0.08 0.00
01/21/2019 1,840 0.00 13.02 8.20 -0.08 0.00
01/22/2019 1,854 0.00 12.74 8.23 -0.08 0.00
01/23/2019 1,859 0.00 13.21 8.24 -0.08 0.00
01/24/2019 1,864 0.00 13.29 8.25 -0.08 0.00
01/25/2019 1,873 0.00 13.27 8.27 -0.08 0.00
01/26/2019 1,873 0.00 13.30 8.27 -0.08 0.00
01/27/2019 1,883 0.00 13.31 8.29 -0.08 0.00
01/28/2019 1,888 0.00 13.28 8.30 -0.08 0.00
01/29/2019 1,893 0.00 13.30 8.31 -0.08 0.00
01/30/2019 1,898 0.00 13.19 8.32 -0.08 0.00
01/31/2019 1,902 0.00 13.31 8.33 -0.08 0.00
Average 0.00
Maximum 0.00
Minimum 0.00
Total Volume (AF) 0.00